Saltar para o conteúdo principal

Esposende (CIM)

ID 6212126 · 41.5265, -8.7798 mapa

Última leitura · 2026-05-09 18:00 (Europe/Lisbon)

Temperatura
16.3 °C
Humidade
96 %
Pressão
1,006.0 hPa
Precipitação
0.5 mm
Radiação
Velocidade do vento
24.1 km/h
Direcção do vento
S · Sul

Histórico de 24 horas

Hora (Europe/Lisbon) Temperatura Humidade Pressão Chuva Vento Direcção
2026-05-09 18:00 16.3 °C 96 % 1,006.0 0.5 mm 24.1 km/h S
2026-05-09 17:00 17.4 °C 88 % 1,005.6 0.0 mm 27.4 km/h S
2026-05-09 16:00 16.9 °C 94 % 1,005.6 0.0 mm 22.7 km/h S
2026-05-09 15:00 17.0 °C 93 % 1,005.1 0.0 mm 16.6 km/h SE
2026-05-09 14:00 17.4 °C 96 % 1,005.0 0.0 mm 8.6 km/h E
2026-05-09 13:00 15.2 °C 98 % 1,005.4 0.0 mm 13.7 km/h SE
2026-05-09 12:00 13.7 °C 98 % 1,006.0 2.1 mm 7.9 km/h E
2026-05-09 11:00 13.6 °C 98 % 1,005.8 3.9 mm 9.4 km/h S
2026-05-09 10:00 15.4 °C 94 % 1,005.4 0.9 mm 17.3 km/h S
2026-05-09 09:00 15.8 °C 87 % 1,005.3 0.0 mm 8.6 km/h E
2026-05-09 08:00 14.8 °C 90 % 1,005.1 0.0 mm 11.9 km/h SE
2026-05-09 07:00 13.7 °C 95 % 1,005.1 0.0 mm 9.4 km/h E
2026-05-09 06:00 13.6 °C 97 % 1,005.4 0.0 mm 11.5 km/h SE
2026-05-09 05:00 14.5 °C 94 % 1,005.7 0.0 mm 11.5 km/h SE
2026-05-09 04:00 13.9 °C 98 % 1,005.9 0.0 mm 18.0 km/h SE
2026-05-09 03:00 14.1 °C 98 % 1,006.2 0.0 mm 12.2 km/h S
2026-05-09 02:00 14.9 °C 97 % 1,007.0 0.9 mm 10.1 km/h SE
2026-05-09 01:00 16.0 °C 72 % 1,006.9 0.2 mm 19.4 km/h S
2026-05-09 00:00 16.7 °C 62 % 1,006.6 0.0 mm 11.2 km/h E
2026-05-08 23:00 16.7 °C 64 % 1,007.3 0.0 mm 13.3 km/h NE
2026-05-08 22:00 16.5 °C 65 % 1,007.9 0.0 mm 12.2 km/h E
2026-05-08 21:00 16.9 °C 58 % 1,008.0 0.0 mm 7.6 km/h NE
2026-05-08 20:00 17.1 °C 57 % 1,008.4 0.0 mm 4.3 km/h N
2026-05-08 19:00 17.6 °C 54 % 1,008.9 0.0 mm 5.0 km/h SW